sensor_id;sensor_type;location;lat;lon;timestamp;temperature;humidity
30520;DHT22;17300;50.374;8.006;2022-11-20T13:56:40;18.80;65.20
30520;DHT22;17300;50.374;8.006;2022-11-20T13:59:14;18.80;65.90
30520;DHT22;17300;50.374;8.006;2022-11-20T14:01:46;19.10;65.60
30520;DHT22;17300;50.374;8.006;2022-11-20T14:04:26;19.50;64.60
30520;DHT22;17300;50.374;8.006;2022-11-20T14:06:54;19.80;63.40
30520;DHT22;17300;50.374;8.006;2022-11-20T14:09:26;20.10;62.50
30520;DHT22;17300;50.374;8.006;2022-11-20T14:11:55;20.40;61.50
30520;DHT22;17300;50.374;8.006;2022-11-20T14:14:23;20.70;61.10
30520;DHT22;17300;50.374;8.006;2022-11-20T14:16:51;20.80;60.40
30520;DHT22;17300;50.374;8.006;2022-11-20T14:19:28;21.00;60.00
30520;DHT22;17300;50.374;8.006;2022-11-20T14:22:16;21.10;59.40
30520;DHT22;17300;50.374;8.006;2022-11-20T14:24:44;21.30;59.10
30520;DHT22;17300;50.374;8.006;2022-11-20T14:27:18;21.40;59.10
30520;DHT22;17300;50.374;8.006;2022-11-20T14:29:47;21.40;58.60
30520;DHT22;17300;50.374;8.006;2022-11-20T14:32:15;21.50;58.70
30520;DHT22;17300;50.374;8.006;2022-11-20T14:34:45;21.60;58.60
30520;DHT22;17300;50.374;8.006;2022-11-20T14:37:18;21.60;58.40
30520;DHT22;17300;50.374;8.006;2022-11-20T14:39:49;21.60;58.10
30520;DHT22;17300;50.374;8.006;2022-11-20T14:42:20;21.70;58.10
30520;DHT22;17300;50.374;8.006;2022-11-20T14:44:48;21.70;58.10
30520;DHT22;17300;50.374;8.006;2022-11-20T14:47:18;21.80;58.10
30520;DHT22;17300;50.374;8.006;2022-11-20T14:49:45;21.80;57.90
30520;DHT22;17300;50.374;8.006;2022-11-20T14:52:15;21.80;57.90
30520;DHT22;17300;50.374;8.006;2022-11-20T14:54:46;21.80;57.70
30520;DHT22;17300;50.374;8.006;2022-11-20T14:57:25;21.90;57.70
30520;DHT22;17300;50.374;8.006;2022-11-20T15:00:05;21.90;57.40
30520;DHT22;17300;50.374;8.006;2022-11-20T15:02:32;21.90;57.40
30520;DHT22;17300;50.374;8.006;2022-11-20T15:05:01;22.00;57.70
30520;DHT22;17300;50.374;8.006;2022-11-20T15:07:30;22.00;57.50
30520;DHT22;17300;50.374;8.006;2022-11-20T15:10:01;22.00;57.50
30520;DHT22;17300;50.374;8.006;2022-11-20T15:12:30;22.00;57.20
30520;DHT22;17300;50.374;8.006;2022-11-20T15:14:57;22.00;57.20
30520;DHT22;17300;50.374;8.006;2022-11-20T15:17:24;22.10;57.30
30520;DHT22;17300;50.374;8.006;2022-11-20T15:19:51;22.10;57.20
30520;DHT22;17300;50.374;8.006;2022-11-20T15:22:18;22.10;57.20
30520;DHT22;17300;50.374;8.006;2022-11-20T15:24:45;22.10;57.00
30520;DHT22;17300;50.374;8.006;2022-11-20T15:27:12;22.20;57.00
30520;DHT22;17300;50.374;8.006;2022-11-20T15:29:41;22.20;56.90
30520;DHT22;17300;50.374;8.006;2022-11-20T15:32:08;22.10;56.80
30520;DHT22;17300;50.374;8.006;2022-11-20T15:34:35;22.20;56.70
30520;DHT22;17300;50.374;8.006;2022-11-20T15:37:02;22.20;56.70
30520;DHT22;17300;50.374;8.006;2022-11-20T15:39:28;22.20;56.60
30520;DHT22;17300;50.374;8.006;2022-11-20T15:41:55;22.20;56.50
30520;DHT22;17300;50.374;8.006;2022-11-20T15:44:22;22.20;56.50
30520;DHT22;17300;50.374;8.006;2022-11-20T15:46:50;22.20;56.40
30520;DHT22;17300;50.374;8.006;2022-11-20T15:49:17;22.10;56.20
30520;DHT22;17300;50.374;8.006;2022-11-20T15:51:48;22.20;56.30
30520;DHT22;17300;50.374;8.006;2022-11-20T15:54:17;22.10;56.20
30520;DHT22;17300;50.374;8.006;2022-11-20T15:56:45;22.10;56.20
30520;DHT22;17300;50.374;8.006;2022-11-20T15:59:12;22.10;56.30
30520;DHT22;17300;50.374;8.006;2022-11-20T16:01:40;22.10;56.20
30520;DHT22;17300;50.374;8.006;2022-11-20T16:04:10;22.10;56.30
30520;DHT22;17300;50.374;8.006;2022-11-20T16:06:37;22.10;56.30
30520;DHT22;17300;50.374;8.006;2022-11-20T16:09:03;22.10;56.40
30520;DHT22;17300;50.374;8.006;2022-11-20T16:11:30;22.10;56.50
30520;DHT22;17300;50.374;8.006;2022-11-20T16:13:57;22.10;56.50
30520;DHT22;17300;50.374;8.006;2022-11-20T16:16:41;22.20;56.60
30520;DHT22;17300;50.374;8.006;2022-11-20T16:19:11;22.20;56.50
30520;DHT22;17300;50.374;8.006;2022-11-20T16:21:38;22.20;56.40
30520;DHT22;17300;50.374;8.006;2022-11-20T16:24:08;22.30;56.40
30520;DHT22;17300;50.374;8.006;2022-11-20T16:26:37;22.30;56.40
30520;DHT22;17300;50.374;8.006;2022-11-20T16:29:34;22.30;53.80
30520;DHT22;17300;50.374;8.006;2022-11-20T16:35:44;21.30;46.30
30520;DHT22;17300;50.374;8.006;2022-11-20T16:38:11;20.60;46.60
30520;DHT22;17300;50.374;8.006;2022-11-20T16:44:25;18.70;45.60
30520;DHT22;17300;50.374;8.006;2022-11-20T16:46:56;17.70;46.50
30520;DHT22;17300;50.374;8.006;2022-11-20T16:49:26;16.90;46.70
30520;DHT22;17300;50.374;8.006;2022-11-20T16:52:27;16.20;47.20
30520;DHT22;17300;50.374;8.006;2022-11-20T16:55:06;15.50;47.70
30520;DHT22;17300;50.374;8.006;2022-11-20T16:57:51;14.90;48.00
30520;DHT22;17300;50.374;8.006;2022-11-20T17:03:36;13.80;48.90
30520;DHT22;17300;50.374;8.006;2022-11-20T17:06:14;13.40;49.30
30520;DHT22;17300;50.374;8.006;2022-11-20T17:09:02;13.00;49.80
30520;DHT22;17300;50.374;8.006;2022-11-20T17:11:29;12.70;50.40
30520;DHT22;17300;50.374;8.006;2022-11-20T17:14:01;12.50;50.40
30520;DHT22;17300;50.374;8.006;2022-11-20T17:16:45;12.20;50.80
30520;DHT22;17300;50.374;8.006;2022-11-20T17:19:26;12.00;51.20
30520;DHT22;17300;50.374;8.006;2022-11-20T17:21:58;11.80;51.40
30520;DHT22;17300;50.374;8.006;2022-11-20T17:24:26;11.60;51.70
30520;DHT22;17300;50.374;8.006;2022-11-20T17:26:52;11.50;52.00
30520;DHT22;17300;50.374;8.006;2022-11-20T17:29:19;11.30;52.10
30520;DHT22;17300;50.374;8.006;2022-11-20T17:31:49;11.20;52.30
30520;DHT22;17300;50.374;8.006;2022-11-20T17:34:16;11.10;52.50
30520;DHT22;17300;50.374;8.006;2022-11-20T17:36:43;11.00;52.70
30520;DHT22;17300;50.374;8.006;2022-11-20T17:39:11;11.00;53.00
30520;DHT22;17300;50.374;8.006;2022-11-20T17:41:39;10.90;53.10
30520;DHT22;17300;50.374;8.006;2022-11-20T17:44:09;10.80;53.30
30520;DHT22;17300;50.374;8.006;2022-11-20T17:46:36;10.70;53.30
30520;DHT22;17300;50.374;8.006;2022-11-20T17:49:03;10.70;53.40
30520;DHT22;17300;50.374;8.006;2022-11-20T17:51:32;10.70;53.40
30520;DHT22;17300;50.374;8.006;2022-11-20T17:54:02;10.60;53.60
30520;DHT22;17300;50.374;8.006;2022-11-20T17:56:30;10.50;53.70
30520;DHT22;17300;50.374;8.006;2022-11-20T17:59:16;10.50;53.80
30520;DHT22;17300;50.374;8.006;2022-11-20T18:01:44;10.50;54.50
30520;DHT22;17300;50.374;8.006;2022-11-20T18:04:11;10.50;54.10
30520;DHT22;17300;50.374;8.006;2022-11-20T18:06:38;10.40;54.10
30520;DHT22;17300;50.374;8.006;2022-11-20T18:09:06;10.40;54.30
30520;DHT22;17300;50.374;8.006;2022-11-20T18:11:34;10.40;54.40
30520;DHT22;17300;50.374;8.006;2022-11-20T18:14:03;10.40;54.60
30520;DHT22;17300;50.374;8.006;2022-11-20T18:16:50;10.40;54.70
30520;DHT22;17300;50.374;8.006;2022-11-20T18:19:20;10.40;54.80
30520;DHT22;17300;50.374;8.006;2022-11-20T18:21:47;10.40;54.80
30520;DHT22;17300;50.374;8.006;2022-11-20T18:24:14;10.30;54.80
30520;DHT22;17300;50.374;8.006;2022-11-20T18:26:41;10.30;54.90
30520;DHT22;17300;50.374;8.006;2022-11-20T18:29:07;10.30;54.90
30520;DHT22;17300;50.374;8.006;2022-11-20T18:31:35;10.30;55.00
30520;DHT22;17300;50.374;8.006;2022-11-20T18:34:03;10.30;55.00
30520;DHT22;17300;50.374;8.006;2022-11-20T18:36:30;10.30;55.20
30520;DHT22;17300;50.374;8.006;2022-11-20T18:38:59;10.30;55.20
30520;DHT22;17300;50.374;8.006;2022-11-20T18:41:28;10.30;55.30
30520;DHT22;17300;50.374;8.006;2022-11-20T18:44:14;10.30;55.40
30520;DHT22;17300;50.374;8.006;2022-11-20T18:46:59;10.30;55.40
30520;DHT22;17300;50.374;8.006;2022-11-20T18:49:27;10.30;55.40
30520;DHT22;17300;50.374;8.006;2022-11-20T18:51:54;10.30;55.50
30520;DHT22;17300;50.374;8.006;2022-11-20T18:54:21;10.30;55.60
30520;DHT22;17300;50.374;8.006;2022-11-20T18:56:48;10.30;55.70
30520;DHT22;17300;50.374;8.006;2022-11-20T18:59:16;10.30;55.70
30520;DHT22;17300;50.374;8.006;2022-11-20T19:01:43;10.30;55.70
30520;DHT22;17300;50.374;8.006;2022-11-20T19:04:12;10.30;55.70
30520;DHT22;17300;50.374;8.006;2022-11-20T19:06:42;10.30;55.80
30520;DHT22;17300;50.374;8.006;2022-11-20T19:09:11;10.30;56.00
30520;DHT22;17300;50.374;8.006;2022-11-20T19:11:39;10.30;56.10
30520;DHT22;17300;50.374;8.006;2022-11-20T19:14:07;10.30;56.20
30520;DHT22;17300;50.374;8.006;2022-11-20T19:16:34;10.30;56.30
30520;DHT22;17300;50.374;8.006;2022-11-20T19:19:02;10.30;56.40
30520;DHT22;17300;50.374;8.006;2022-11-20T19:21:29;10.40;56.60
30520;DHT22;17300;50.374;8.006;2022-11-20T19:24:00;10.40;56.70
30520;DHT22;17300;50.374;8.006;2022-11-20T19:26:27;10.40;56.70
30520;DHT22;17300;50.374;8.006;2022-11-20T19:28:54;10.40;56.70
30520;DHT22;17300;50.374;8.006;2022-11-20T19:31:22;10.50;56.80
30520;DHT22;17300;50.374;8.006;2022-11-20T19:33:52;10.60;56.80
30520;DHT22;17300;50.374;8.006;2022-11-20T19:36:21;10.50;56.70
30520;DHT22;17300;50.374;8.006;2022-11-20T19:38:49;10.60;56.80
30520;DHT22;17300;50.374;8.006;2022-11-20T19:41:19;10.60;56.80
30520;DHT22;17300;50.374;8.006;2022-11-20T19:43:46;10.70;56.90
30520;DHT22;17300;50.374;8.006;2022-11-20T19:46:15;10.70;56.80
30520;DHT22;17300;50.374;8.006;2022-11-20T19:48:42;10.70;57.00
30520;DHT22;17300;50.374;8.006;2022-11-20T19:51:10;10.70;57.00
30520;DHT22;17300;50.374;8.006;2022-11-20T19:53:37;10.80;57.00
30520;DHT22;17300;50.374;8.006;2022-11-20T19:56:04;10.80;57.00
30520;DHT22;17300;50.374;8.006;2022-11-20T19:58:33;10.80;56.90
30520;DHT22;17300;50.374;8.006;2022-11-20T20:01:05;10.80;56.90
30520;DHT22;17300;50.374;8.006;2022-11-20T20:03:32;10.90;57.10
30520;DHT22;17300;50.374;8.006;2022-11-20T20:06:00;10.90;56.90
30520;DHT22;17300;50.374;8.006;2022-11-20T20:08:28;10.90;56.90
30520;DHT22;17300;50.374;8.006;2022-11-20T20:10:54;11.00;56.90
30520;DHT22;17300;50.374;8.006;2022-11-20T20:13:21;11.00;56.80
30520;DHT22;17300;50.374;8.006;2022-11-20T20:15:50;11.00;56.90
30520;DHT22;17300;50.374;8.006;2022-11-20T20:18:17;11.00;56.90
30520;DHT22;17300;50.374;8.006;2022-11-20T20:20:43;11.00;56.70
30520;DHT22;17300;50.374;8.006;2022-11-20T20:23:10;11.00;56.60
30520;DHT22;17300;50.374;8.006;2022-11-20T20:25:37;11.00;56.60
30520;DHT22;17300;50.374;8.006;2022-11-20T20:28:04;11.00;56.60
30520;DHT22;17300;50.374;8.006;2022-11-20T20:30:31;11.00;56.60
30520;DHT22;17300;50.374;8.006;2022-11-20T20:32:59;11.00;56.60
30520;DHT22;17300;50.374;8.006;2022-11-20T20:35:26;11.00;57.20
30520;DHT22;17300;50.374;8.006;2022-11-20T20:37:52;11.10;56.50
30520;DHT22;17300;50.374;8.006;2022-11-20T20:40:19;11.00;56.30
30520;DHT22;17300;50.374;8.006;2022-11-20T20:42:46;11.00;56.30
30520;DHT22;17300;50.374;8.006;2022-11-20T20:45:13;11.00;56.30
30520;DHT22;17300;50.374;8.006;2022-11-20T20:47:40;11.00;56.40
30520;DHT22;17300;50.374;8.006;2022-11-20T20:50:10;10.90;56.40
30520;DHT22;17300;50.374;8.006;2022-11-20T20:52:37;11.00;56.60
30520;DHT22;17300;50.374;8.006;2022-11-20T20:55:05;10.90;56.60
30520;DHT22;17300;50.374;8.006;2022-11-20T20:57:32;10.90;56.60
30520;DHT22;17300;50.374;8.006;2022-11-20T20:59:59;10.90;56.60
30520;DHT22;17300;50.374;8.006;2022-11-20T21:02:26;10.90;56.60
30520;DHT22;17300;50.374;8.006;2022-11-20T21:04:52;10.90;56.60
30520;DHT22;17300;50.374;8.006;2022-11-20T21:07:21;10.90;56.70
30520;DHT22;17300;50.374;8.006;2022-11-20T21:16:51;11.00;57.10
30520;DHT22;17300;50.374;8.006;2022-11-20T21:19:18;11.00;57.20
30520;DHT22;17300;50.374;8.006;2022-11-20T21:21:55;11.00;56.90
30520;DHT22;17300;50.374;8.006;2022-11-20T21:28:01;11.00;57.10
30520;DHT22;17300;50.374;8.006;2022-11-20T21:30:33;11.00;56.90
30520;DHT22;17300;50.374;8.006;2022-11-20T21:33:00;10.90;56.90
30520;DHT22;17300;50.374;8.006;2022-11-20T21:35:27;11.00;57.00
30520;DHT22;17300;50.374;8.006;2022-11-20T21:37:54;11.00;57.00
30520;DHT22;17300;50.374;8.006;2022-11-20T21:40:21;11.00;56.90
30520;DHT22;17300;50.374;8.006;2022-11-20T21:42:48;11.00;56.80
30520;DHT22;17300;50.374;8.006;2022-11-20T21:45:18;11.00;56.90
30520;DHT22;17300;50.374;8.006;2022-11-20T21:47:48;11.00;56.90
30520;DHT22;17300;50.374;8.006;2022-11-20T21:50:15;11.10;56.90
30520;DHT22;17300;50.374;8.006;2022-11-20T21:52:42;11.10;56.90
30520;DHT22;17300;50.374;8.006;2022-11-20T21:55:09;11.10;56.80
30520;DHT22;17300;50.374;8.006;2022-11-20T21:57:36;11.10;56.70
30520;DHT22;17300;50.374;8.006;2022-11-20T22:00:04;11.10;56.60
30520;DHT22;17300;50.374;8.006;2022-11-20T22:02:32;11.10;56.60
30520;DHT22;17300;50.374;8.006;2022-11-20T22:04:59;11.00;56.50
30520;DHT22;17300;50.374;8.006;2022-11-20T22:07:25;11.00;56.50
30520;DHT22;17300;50.374;8.006;2022-11-20T22:09:52;11.00;56.50
30520;DHT22;17300;50.374;8.006;2022-11-20T22:12:19;11.00;56.50
30520;DHT22;17300;50.374;8.006;2022-11-20T22:14:45;11.00;56.50
30520;DHT22;17300;50.374;8.006;2022-11-20T22:17:12;11.00;56.50
30520;DHT22;17300;50.374;8.006;2022-11-20T22:19:41;11.00;56.50
30520;DHT22;17300;50.374;8.006;2022-11-20T22:22:07;11.00;56.40
30520;DHT22;17300;50.374;8.006;2022-11-20T22:24:34;11.00;56.40
30520;DHT22;17300;50.374;8.006;2022-11-20T22:27:01;11.00;56.30
30520;DHT22;17300;50.374;8.006;2022-11-20T22:29:28;11.00;56.30
30520;DHT22;17300;50.374;8.006;2022-11-20T22:31:54;11.00;56.20
30520;DHT22;17300;50.374;8.006;2022-11-20T22:34:21;10.90;55.90
30520;DHT22;17300;50.374;8.006;2022-11-20T22:36:49;10.90;56.60
30520;DHT22;17300;50.374;8.006;2022-11-20T22:39:16;10.90;55.90
30520;DHT22;17300;50.374;8.006;2022-11-20T22:41:43;10.80;55.80
30520;DHT22;17300;50.374;8.006;2022-11-20T22:44:12;10.80;56.40
30520;DHT22;17300;50.374;8.006;2022-11-20T22:46:39;10.80;55.90
30520;DHT22;17300;50.374;8.006;2022-11-20T22:49:07;10.70;55.80
30520;DHT22;17300;50.374;8.006;2022-11-20T22:51:35;10.70;55.80
30520;DHT22;17300;50.374;8.006;2022-11-20T22:54:04;10.70;55.80
30520;DHT22;17300;50.374;8.006;2022-11-20T22:56:31;10.60;55.90
30520;DHT22;17300;50.374;8.006;2022-11-20T22:58:58;10.60;55.90
30520;DHT22;17300;50.374;8.006;2022-11-20T23:01:26;10.60;55.90
30520;DHT22;17300;50.374;8.006;2022-11-20T23:03:55;10.60;56.00
30520;DHT22;17300;50.374;8.006;2022-11-20T23:06:22;10.60;56.10
30520;DHT22;17300;50.374;8.006;2022-11-20T23:08:49;10.60;56.00
30520;DHT22;17300;50.374;8.006;2022-11-20T23:11:19;10.50;55.90
30520;DHT22;17300;50.374;8.006;2022-11-20T23:13:46;10.50;55.90
30520;DHT22;17300;50.374;8.006;2022-11-20T23:16:18;10.60;56.00
30520;DHT22;17300;50.374;8.006;2022-11-20T23:18:45;10.50;56.00
30520;DHT22;17300;50.374;8.006;2022-11-20T23:21:14;10.50;56.00
30520;DHT22;17300;50.374;8.006;2022-11-20T23:23:43;10.50;56.00
30520;DHT22;17300;50.374;8.006;2022-11-20T23:26:14;10.50;56.00
30520;DHT22;17300;50.374;8.006;2022-11-20T23:28:42;10.50;56.00
30520;DHT22;17300;50.374;8.006;2022-11-20T23:31:10;10.40;55.90
30520;DHT22;17300;50.374;8.006;2022-11-20T23:33:39;10.40;55.90
30520;DHT22;17300;50.374;8.006;2022-11-20T23:36:06;10.40;56.00
30520;DHT22;17300;50.374;8.006;2022-11-20T23:38:33;10.30;56.00
30520;DHT22;17300;50.374;8.006;2022-11-20T23:41:01;10.30;56.60
30520;DHT22;17300;50.374;8.006;2022-11-20T23:43:28;10.30;56.00
30520;DHT22;17300;50.374;8.006;2022-11-20T23:45:58;10.30;56.00
30520;DHT22;17300;50.374;8.006;2022-11-20T23:48:26;10.30;56.00
30520;DHT22;17300;50.374;8.006;2022-11-20T23:50:54;10.20;56.00
30520;DHT22;17300;50.374;8.006;2022-11-20T23:53:21;10.20;56.20
30520;DHT22;17300;50.374;8.006;2022-11-20T23:55:48;10.30;56.30
30520;DHT22;17300;50.374;8.006;2022-11-20T23:58:16;10.20;56.30
